Time;durP1;ratioP1;P1;durP2;ratioP2;P2;SDS_P1;SDS_P2;PMS_P1;PMS_P2;Temp;Humidity;BMP_temperature;BMP_pressure;BME280_temperature;BME280_humidity;BME280_pressure;Samples;Min_cycle;Max_cycle;Signal;HPM_P1;HPM_P2
2023/10/28 00:00:53;;;;;;;2.10;0.90;;;;;;;;;;5041802;28;20433;-75
2023/10/28 00:03:21;;;;;;;2.13;1.13;;;;;;;;;;5049753;28;20435;-74
2023/10/28 00:05:51;;;;;;;2.88;1.30;;;;;;;;;;5048773;28;20434;-75
2023/10/28 00:08:21;;;;;;;2.60;1.10;;;;;;;;;;5046992;28;20988;-74
2023/10/28 00:10:49;;;;;;;2.30;1.10;;;;;;;;;;5046401;28;20512;-76
2023/10/28 00:13:16;;;;;;;1.77;0.97;;;;;;;;;;5045720;28;20430;-74
2023/10/28 00:15:43;;;;;;;1.83;1.00;;;;;;;;;;5040498;28;20909;-75
2023/10/28 00:18:10;;;;;;;2.70;0.85;;;;;;;;;;5045320;28;20441;-75
2023/10/28 00:20:38;;;;;;;3.42;0.93;;;;;;;;;;5046350;28;21053;-75
2023/10/28 00:23:08;;;;;;;2.70;1.00;;;;;;;;;;5044208;28;20987;-75
2023/10/28 00:25:36;;;;;;;2.47;0.90;;;;;;;;;;5045358;28;20440;-76
2023/10/28 00:28:03;;;;;;;0.98;0.63;;;;;;;;;;5046493;28;20429;-75
2023/10/28 00:30:31;;;;;;;2.42;0.80;;;;;;;;;;5040955;28;20433;-76
2023/10/28 00:33:01;;;;;;;2.00;0.70;;;;;;;;;;5042023;28;20439;-76
2023/10/28 00:35:31;;;;;;;1.43;0.70;;;;;;;;;;5034791;28;20429;-76
2023/10/28 00:37:58;;;;;;;2.72;0.90;;;;;;;;;;5046588;28;20437;-75
2023/10/28 00:40:26;;;;;;;3.72;0.90;;;;;;;;;;5043611;28;21290;-75
2023/10/28 00:42:53;;;;;;;0.98;0.60;;;;;;;;;;5045897;28;20512;-74
2023/10/28 00:45:20;;;;;;;1.00;0.80;;;;;;;;;;5039829;28;20522;-74
2023/10/28 00:47:54;;;;;;;1.80;0.75;;;;;;;;;;5037632;28;20435;-74
2023/10/28 00:50:29;;;;;;;1.13;0.50;;;;;;;;;;5052462;28;20433;-76
2023/10/28 00:52:58;;;;;;;2.65;0.90;;;;;;;;;;5046847;28;20497;-75
2023/10/28 00:55:29;;;;;;;1.95;0.75;;;;;;;;;;5040536;28;20423;-75
2023/10/28 00:57:56;;;;;;;3.20;0.90;;;;;;;;;;5040420;28;20440;-76
2023/10/28 01:00:23;;;;;;;1.13;1.05;;;;;;;;;;5044535;28;20433;-75
2023/10/28 01:02:52;;;;;;;2.47;1.10;;;;;;;;;;5051469;28;20427;-77
2023/10/28 01:05:19;;;;;;;2.10;1.10;;;;;;;;;;5047254;28;20437;-75
2023/10/28 01:07:48;;;;;;;2.67;1.17;;;;;;;;;;5041960;28;20429;-75
2023/10/28 01:10:26;;;;;;;2.22;0.95;;;;;;;;;;5046355;28;20421;-76
2023/10/28 01:12:53;;;;;;;3.22;1.10;;;;;;;;;;5048643;28;20435;-75
2023/10/28 01:15:22;;;;;;;2.20;1.13;;;;;;;;;;5036159;28;20448;-75
2023/10/28 01:17:49;;;;;;;2.08;0.98;;;;;;;;;;5041266;28;20461;-78
2023/10/28 01:20:16;;;;;;;2.03;0.77;;;;;;;;;;5042004;28;20911;-76
2023/10/28 01:22:46;;;;;;;2.33;0.73;;;;;;;;;;5039618;28;20433;-77
2023/10/28 01:25:13;;;;;;;2.83;0.90;;;;;;;;;;5045851;28;20437;-76
2023/10/28 01:27:43;;;;;;;3.03;0.80;;;;;;;;;;5045853;28;20523;-77
2023/10/28 01:30:13;;;;;;;2.55;0.80;;;;;;;;;;5043760;28;20437;-76
2023/10/28 01:32:42;;;;;;;0.82;0.80;;;;;;;;;;5043473;28;22394;-77
2023/10/28 01:35:09;;;;;;;2.13;0.68;;;;;;;;;;5046191;28;20949;-78
2023/10/28 01:37:37;;;;;;;0.68;0.60;;;;;;;;;;5045636;28;20508;-76
2023/10/28 01:40:12;;;;;;;2.50;0.80;;;;;;;;;;5040633;28;20436;-76
2023/10/28 01:42:44;;;;;;;1.17;0.57;;;;;;;;;;5047325;28;20429;-76
2023/10/28 01:45:12;;;;;;;1.13;0.60;;;;;;;;;;5049972;28;20446;-77
2023/10/28 01:47:41;;;;;;;1.65;0.50;;;;;;;;;;5050792;28;20436;-77
2023/10/28 01:50:16;;;;;;;1.55;0.60;;;;;;;;;;5046887;28;20435;-76
2023/10/28 01:52:44;;;;;;;0.53;0.50;;;;;;;;;;5045816;28;20476;-76
2023/10/28 01:55:12;;;;;;;0.90;0.50;;;;;;;;;;5043641;28;20438;-74
2023/10/28 01:57:40;;;;;;;0.40;0.30;;;;;;;;;;5043492;28;20510;-75
2023/10/28 02:00:12;;;;;;;0.30;0.30;;;;;;;;;;5047056;28;21138;-76
2023/10/28 02:02:41;;;;;;;0.20;0.20;;;;;;;;;;5039540;28;20440;-79
2023/10/28 02:05:12;;;;;;;0.90;0.50;;;;;;;;;;5048945;28;21168;-76
2023/10/28 02:07:42;;;;;;;1.58;0.30;;;;;;;;;;5046385;28;20483;-78
2023/10/28 02:10:09;;;;;;;0.45;0.45;;;;;;;;;;5044536;28;20524;-77
2023/10/28 02:12:36;;;;;;;1.47;0.50;;;;;;;;;;5047171;28;20448;-78
2023/10/28 02:15:04;;;;;;;0.40;0.40;;;;;;;;;;5040204;28;20516;-78
2023/10/28 02:17:32;;;;;;;0.50;0.50;;;;;;;;;;5043595;28;20492;-78
2023/10/28 02:20:03;;;;;;;1.00;0.50;;;;;;;;;;5045483;28;20444;-76
2023/10/28 02:22:33;;;;;;;1.17;0.50;;;;;;;;;;5048538;28;20479;-76
2023/10/28 02:25:01;;;;;;;0.50;0.50;;;;;;;;;;5045747;28;20923;-76
2023/10/28 02:27:28;;;;;;;0.60;0.50;;;;;;;;;;5048754;28;20441;-77
2023/10/28 02:29:55;;;;;;;0.40;0.40;;;;;;;;;;5049169;28;20451;-77
2023/10/28 02:32:22;;;;;;;0.40;0.40;;;;;;;;;;5047310;28;20433;-77
2023/10/28 02:34:50;;;;;;;0.50;0.50;;;;;;;;;;5043673;28;20423;-78
2023/10/28 02:37:17;;;;;;;1.40;0.30;;;;;;;;;;5047404;28;20468;-79
2023/10/28 02:39:44;;;;;;;0.30;0.30;;;;;;;;;;5041943;28;20435;-77
2023/10/28 02:42:11;;;;;;;0.50;0.50;;;;;;;;;;5045329;28;20957;-76
2023/10/28 02:44:39;;;;;;;0.30;0.30;;;;;;;;;;5055578;28;20540;-78
2023/10/28 02:47:06;;;;;;;1.00;0.40;;;;;;;;;;5043279;28;20862;-78
2023/10/28 02:49:36;;;;;;;0.40;0.40;;;;;;;;;;5042373;28;20423;-78
2023/10/28 02:52:04;;;;;;;0.80;0.50;;;;;;;;;;5038434;28;20876;-76
2023/10/28 02:54:31;;;;;;;0.30;0.30;;;;;;;;;;5044032;28;21073;-77
2023/10/28 02:56:58;;;;;;;0.40;0.40;;;;;;;;;;5050821;28;21053;-76
2023/10/28 02:59:28;;;;;;;0.70;0.50;;;;;;;;;;5041457;28;20878;-78
2023/10/28 03:01:58;;;;;;;2.53;0.32;;;;;;;;;;5038115;28;20464;-77
2023/10/28 03:04:31;;;;;;;1.15;0.40;;;;;;;;;;5048030;28;20429;-77
2023/10/28 03:06:59;;;;;;;0.40;0.40;;;;;;;;;;5048979;28;20433;-78
2023/10/28 03:09:26;;;;;;;1.65;0.40;;;;;;;;;;5041877;28;20436;-77
2023/10/28 03:11:53;;;;;;;1.30;0.50;;;;;;;;;;5048882;28;20436;-78
2023/10/28 03:14:20;;;;;;;0.43;0.43;;;;;;;;;;5046707;28;20499;-78
2023/10/28 03:16:47;;;;;;;0.30;0.30;;;;;;;;;;5050733;28;20425;-77
2023/10/28 03:19:15;;;;;;;2.17;0.65;;;;;;;;;;5046061;28;21342;-76
2023/10/28 03:21:42;;;;;;;1.40;0.50;;;;;;;;;;5046573;28;20425;-77
2023/10/28 03:24:09;;;;;;;0.68;0.60;;;;;;;;;;5042345;28;20437;-77
2023/10/28 03:26:39;;;;;;;0.90;0.57;;;;;;;;;;5054687;28;20444;-78
2023/10/28 03:29:06;;;;;;;1.63;0.65;;;;;;;;;;5048993;28;20429;-78
2023/10/28 03:31:33;;;;;;;1.63;0.50;;;;;;;;;;5048878;28;20433;-78
2023/10/28 03:34:01;;;;;;;1.55;0.70;;;;;;;;;;5047839;28;20433;-77
2023/10/28 03:36:28;;;;;;;1.55;0.60;;;;;;;;;;5041313;28;20958;-78
2023/10/28 03:38:56;;;;;;;1.50;0.82;;;;;;;;;;5042247;28;20437;-77
2023/10/28 03:41:24;;;;;;;2.90;0.73;;;;;;;;;;5041489;28;20429;-76
2023/10/28 03:43:51;;;;;;;1.67;0.60;;;;;;;;;;5049042;28;20445;-76
2023/10/28 03:46:18;;;;;;;2.05;0.68;;;;;;;;;;5048856;28;20791;-76
2023/10/28 03:48:45;;;;;;;0.70;0.50;;;;;;;;;;5043612;28;20503;-76
2023/10/28 03:51:16;;;;;;;2.90;0.90;;;;;;;;;;5046313;28;20429;-76
2023/10/28 03:53:44;;;;;;;1.40;0.73;;;;;;;;;;5047790;28;20441;-75
2023/10/28 03:56:11;;;;;;;0.95;0.55;;;;;;;;;;5044794;28;20423;-76
2023/10/28 03:58:39;;;;;;;2.35;0.80;;;;;;;;;;5049256;28;20867;-77
2023/10/28 04:01:10;;;;;;;2.92;1.05;;;;;;;;;;5045709;28;20911;-77
2023/10/28 04:03:37;;;;;;;2.30;0.55;;;;;;;;;;5044880;28;20429;-76
2023/10/28 04:06:04;;;;;;;1.20;0.77;;;;;;;;;;5041004;28;20443;-77
2023/10/28 04:08:34;;;;;;;1.15;0.70;;;;;;;;;;5047125;28;20438;-77
2023/10/28 04:11:03;;;;;;;3.72;0.80;;;;;;;;;;5049180;28;20432;-77
2023/10/28 04:13:31;;;;;;;1.65;0.57;;;;;;;;;;5037012;28;20466;-77
2023/10/28 04:16:02;;;;;;;1.25;0.65;;;;;;;;;;5039113;28;20431;-77
2023/10/28 04:18:31;;;;;;;2.50;0.60;;;;;;;;;;5043721;28;20429;-76
2023/10/28 04:20:59;;;;;;;0.73;0.55;;;;;;;;;;5039065;28;20487;-76
2023/10/28 04:23:26;;;;;;;1.65;0.60;;;;;;;;;;5048719;28;20428;-76
2023/10/28 04:25:53;;;;;;;0.87;0.60;;;;;;;;;;5047178;28;20518;-76
2023/10/28 04:28:23;;;;;;;2.15;0.63;;;;;;;;;;5046125;28;20829;-77
2023/10/28 04:30:57;;;;;;;1.98;0.70;;;;;;;;;;5041504;28;20436;-79
2023/10/28 04:33:27;;;;;;;1.52;0.70;;;;;;;;;;5045065;28;20508;-76
2023/10/28 04:35:57;;;;;;;1.48;0.65;;;;;;;;;;5049360;28;20429;-76
2023/10/28 04:38:25;;;;;;;1.53;0.60;;;;;;;;;;5040287;28;20960;-76
2023/10/28 04:40:52;;;;;;;0.80;0.80;;;;;;;;;;5044249;28;20443;-76
2023/10/28 04:43:20;;;;;;;2.80;0.85;;;;;;;;;;5044278;28;20433;-77
2023/10/28 04:45:48;;;;;;;1.40;0.60;;;;;;;;;;5041287;28;20448;-76
2023/10/28 04:48:15;;;;;;;1.20;0.70;;;;;;;;;;5044372;28;20429;-77
2023/10/28 04:50:45;;;;;;;1.73;0.90;;;;;;;;;;5048925;28;20895;-76
2023/10/28 04:53:12;;;;;;;1.80;0.80;;;;;;;;;;5042133;28;20440;-75
2023/10/28 04:55:41;;;;;;;3.50;1.10;;;;;;;;;;5042202;28;20457;-76
2023/10/28 04:58:08;;;;;;;4.13;1.00;;;;;;;;;;5040664;28;20428;-77
2023/10/28 05:00:35;;;;;;;3.28;0.90;;;;;;;;;;5043999;28;20441;-77
2023/10/28 05:03:07;;;;;;;3.67;0.90;;;;;;;;;;5042497;28;20661;-79
2023/10/28 05:05:37;;;;;;;1.80;0.90;;;;;;;;;;5037793;28;20943;-77
2023/10/28 05:08:05;;;;;;;1.67;0.88;;;;;;;;;;5043323;28;20434;-77
2023/10/28 05:10:32;;;;;;;2.28;0.75;;;;;;;;;;5041712;28;20862;-78
2023/10/28 05:12:59;;;;;;;2.38;0.90;;;;;;;;;;5047583;28;20514;-77
2023/10/28 05:15:28;;;;;;;2.58;0.75;;;;;;;;;;5041313;28;20455;-77
2023/10/28 05:17:55;;;;;;;2.53;0.85;;;;;;;;;;5039799;28;20513;-76
2023/10/28 05:20:24;;;;;;;3.28;0.80;;;;;;;;;;5040976;28;20520;-77
2023/10/28 05:22:52;;;;;;;2.53;1.00;;;;;;;;;;5040598;28;20842;-78
2023/10/28 05:25:19;;;;;;;2.30;0.87;;;;;;;;;;5046170;28;20524;-76
2023/10/28 05:27:46;;;;;;;2.33;0.95;;;;;;;;;;5043664;28;20530;-74
2023/10/28 05:30:14;;;;;;;1.52;0.90;;;;;;;;;;5034624;28;20431;-79
2023/10/28 05:32:41;;;;;;;2.90;0.90;;;;;;;;;;5046896;28;20473;-78
2023/10/28 05:35:11;;;;;;;3.58;1.30;;;;;;;;;;5043960;28;20452;-78
2023/10/28 05:37:38;;;;;;;2.45;0.98;;;;;;;;;;5044042;28;20438;-78
2023/10/28 05:40:10;;;;;;;2.72;0.88;;;;;;;;;;5047556;28;20895;-76
2023/10/28 05:42:37;;;;;;;2.40;1.02;;;;;;;;;;5042787;28;20448;-77
2023/10/28 05:45:07;;;;;;;3.10;0.98;;;;;;;;;;5048579;28;20436;-76
2023/10/28 05:47:37;;;;;;;2.88;0.80;;;;;;;;;;5047086;28;20429;-76
2023/10/28 05:50:05;;;;;;;2.28;1.15;;;;;;;;;;5050286;28;20507;-76
2023/10/28 05:52:34;;;;;;;2.38;0.80;;;;;;;;;;5045147;28;20452;-76
2023/10/28 05:55:02;;;;;;;2.33;0.73;;;;;;;;;;5045934;28;20425;-77
2023/10/28 05:57:30;;;;;;;3.67;1.00;;;;;;;;;;5046695;28;20486;-77
2023/10/28 06:00:00;;;;;;;1.90;0.93;;;;;;;;;;5044878;28;20439;-78
2023/10/28 06:02:27;;;;;;;5.05;0.95;;;;;;;;;;5043046;28;20441;-76
2023/10/28 06:04:54;;;;;;;2.97;1.10;;;;;;;;;;5046726;28;20507;-77
2023/10/28 06:07:25;;;;;;;3.65;1.00;;;;;;;;;;5048725;28;20455;-76
2023/10/28 06:09:52;;;;;;;5.18;1.17;;;;;;;;;;5043244;28;20533;-76
2023/10/28 06:12:20;;;;;;;3.85;1.10;;;;;;;;;;5049873;28;20433;-78
2023/10/28 06:14:50;;;;;;;2.15;1.00;;;;;;;;;;5042725;28;20938;-75
2023/10/28 06:17:24;;;;;;;4.53;1.00;;;;;;;;;;5048649;28;20433;-76
2023/10/28 06:19:52;;;;;;;5.17;1.00;;;;;;;;;;5039729;28;20431;-77
2023/10/28 06:22:19;;;;;;;5.80;1.50;;;;;;;;;;5037372;28;20777;-77
2023/10/28 06:24:46;;;;;;;3.67;1.30;;;;;;;;;;5043378;28;20447;-79
2023/10/28 06:27:13;;;;;;;3.15;0.95;;;;;;;;;;5043751;28;20433;-76
2023/10/28 06:29:40;;;;;;;4.43;0.95;;;;;;;;;;5041816;28;20483;-77
2023/10/28 06:32:08;;;;;;;4.40;1.25;;;;;;;;;;5041714;28;20448;-77
2023/10/28 06:34:35;;;;;;;3.05;1.13;;;;;;;;;;5038383;28;21478;-77
2023/10/28 06:37:03;;;;;;;2.63;0.90;;;;;;;;;;5048820;28;20441;-77
2023/10/28 06:39:33;;;;;;;3.72;1.13;;;;;;;;;;5043508;28;20437;-77
2023/10/28 06:42:01;;;;;;;5.43;1.17;;;;;;;;;;5048978;28;20440;-77
2023/10/28 06:44:29;;;;;;;3.75;0.95;;;;;;;;;;5041887;28;20434;-75
2023/10/28 06:46:56;;;;;;;3.50;1.05;;;;;;;;;;5042160;28;20433;-76
2023/10/28 06:49:23;;;;;;;4.15;1.20;;;;;;;;;;5044233;28;20514;-76
2023/10/28 06:51:50;;;;;;;3.78;1.10;;;;;;;;;;5043762;28;20905;-76
2023/10/28 06:54:18;;;;;;;3.85;1.35;;;;;;;;;;5046990;28;21252;-77
2023/10/28 06:56:45;;;;;;;3.92;1.00;;;;;;;;;;5045040;28;20428;-78
2023/10/28 06:59:12;;;;;;;4.75;1.08;;;;;;;;;;5042942;28;20431;-78
2023/10/28 07:01:40;;;;;;;4.82;1.10;;;;;;;;;;5039777;28;20436;-78
2023/10/28 07:04:07;;;;;;;5.35;1.20;;;;;;;;;;5047530;28;20459;-77
2023/10/28 07:06:34;;;;;;;4.35;0.90;;;;;;;;;;5056194;28;20496;-77
2023/10/28 07:09:01;;;;;;;4.55;1.20;;;;;;;;;;5053494;28;20437;-77
2023/10/28 07:11:28;;;;;;;5.97;1.10;;;;;;;;;;5053390;28;20507;-77
2023/10/28 07:13:55;;;;;;;5.40;1.00;;;;;;;;;;5050886;28;20512;-77
2023/10/28 07:16:27;;;;;;;4.45;1.25;;;;;;;;;;5053679;28;20432;-77
2023/10/28 07:18:54;;;;;;;3.42;1.02;;;;;;;;;;5051915;28;20903;-76
2023/10/28 07:21:22;;;;;;;2.83;0.88;;;;;;;;;;5046259;28;20477;-77
2023/10/28 07:23:50;;;;;;;4.32;1.00;;;;;;;;;;5044110;28;20439;-77
2023/10/28 07:26:17;;;;;;;2.30;1.00;;;;;;;;;;5049756;28;20480;-77
2023/10/28 07:28:46;;;;;;;2.65;1.20;;;;;;;;;;5040386;28;20485;-77
2023/10/28 07:31:15;;;;;;;3.05;0.98;;;;;;;;;;5034381;28;20431;-76
2023/10/28 07:33:46;;;;;;;3.05;0.90;;;;;;;;;;5036736;28;21061;-77
2023/10/28 07:36:14;;;;;;;2.25;0.95;;;;;;;;;;5042872;28;20435;-78
2023/10/28 07:38:41;;;;;;;2.47;1.02;;;;;;;;;;5041668;28;20437;-77
2023/10/28 07:41:14;;;;;;;3.30;1.10;;;;;;;;;;5048297;28;20836;-77
2023/10/28 07:43:42;;;;;;;3.03;0.82;;;;;;;;;;5038773;28;20430;-78
2023/10/28 07:46:09;;;;;;;3.67;0.90;;;;;;;;;;5044942;28;20425;-75
2023/10/28 07:48:40;;;;;;;3.15;1.00;;;;;;;;;;5041748;28;21041;-77
2023/10/28 07:51:07;;;;;;;3.40;0.93;;;;;;;;;;5044785;28;20795;-77
2023/10/28 07:53:34;;;;;;;5.90;1.33;;;;;;;;;;5048132;28;21181;-76
2023/10/28 07:56:01;;;;;;;5.15;1.27;;;;;;;;;;5045124;28;20433;-77
2023/10/28 07:58:29;;;;;;;2.75;1.00;;;;;;;;;;5037610;28;20434;-78
2023/10/28 08:00:58;;;;;;;3.95;1.20;;;;;;;;;;5038400;28;20806;-75
2023/10/28 08:03:26;;;;;;;3.17;1.30;;;;;;;;;;5037058;28;20430;-77
2023/10/28 08:05:53;;;;;;;4.10;1.20;;;;;;;;;;5032649;28;20426;-77
2023/10/28 08:08:23;;;;;;;4.45;0.90;;;;;;;;;;5039970;28;20438;-77
2023/10/28 08:10:50;;;;;;;2.28;0.70;;;;;;;;;;5035039;28;20868;-77
2023/10/28 08:13:18;;;;;;;3.30;1.10;;;;;;;;;;5042273;28;20437;-77
2023/10/28 08:15:52;;;;;;;4.30;1.05;;;;;;;;;;5042078;28;20967;-76
2023/10/28 08:18:19;;;;;;;2.90;0.88;;;;;;;;;;5042450;28;20441;-77
2023/10/28 08:20:46;;;;;;;3.70;1.10;;;;;;;;;;5032923;28;20441;-75
2023/10/28 08:23:14;;;;;;;3.20;0.93;;;;;;;;;;5041683;28;20428;-74
2023/10/28 08:25:41;;;;;;;2.92;0.85;;;;;;;;;;5038128;28;20438;-77
2023/10/28 08:28:08;;;;;;;3.92;1.10;;;;;;;;;;5040225;28;20430;-77
2023/10/28 08:30:35;;;;;;;2.85;0.90;;;;;;;;;;5038315;28;20795;-77
2023/10/28 08:33:02;;;;;;;4.13;1.30;;;;;;;;;;5042474;28;20973;-77
2023/10/28 08:35:30;;;;;;;3.70;1.13;;;;;;;;;;5034692;28;20430;-76
2023/10/28 08:37:59;;;;;;;2.80;0.80;;;;;;;;;;5036613;28;20443;-76
2023/10/28 08:40:29;;;;;;;2.58;0.88;;;;;;;;;;5040855;28;20433;-77
2023/10/28 08:42:58;;;;;;;5.47;1.27;;;;;;;;;;5042025;28;20446;-76
2023/10/28 08:45:26;;;;;;;3.05;1.00;;;;;;;;;;5039306;28;21195;-76
2023/10/28 08:47:54;;;;;;;1.60;0.82;;;;;;;;;;5041353;28;20429;-77
2023/10/28 08:50:27;;;;;;;4.68;1.50;;;;;;;;;;5036634;28;20483;-76
2023/10/28 08:52:55;;;;;;;4.32;1.02;;;;;;;;;;5038858;28;20503;-75
2023/10/28 08:55:26;;;;;;;3.08;1.00;;;;;;;;;;5044429;28;20504;-75
2023/10/28 08:57:53;;;;;;;2.75;0.90;;;;;;;;;;5040658;28;21667;-75
2023/10/28 09:00:23;;;;;;;7.32;1.00;;;;;;;;;;5037942;28;20434;-76
2023/10/28 09:02:51;;;;;;;3.20;1.00;;;;;;;;;;5040076;28;20813;-63
2023/10/28 09:05:19;;;;;;;2.88;0.77;;;;;;;;;;5039110;28;20442;-77
2023/10/28 09:07:47;;;;;;;2.63;0.93;;;;;;;;;;5045377;28;20433;-76
2023/10/28 09:10:18;;;;;;;1.40;0.73;;;;;;;;;;5040958;28;20438;-76
2023/10/28 09:12:48;;;;;;;2.88;1.10;;;;;;;;;;5037702;28;20903;-75
2023/10/28 09:15:20;;;;;;;2.28;0.80;;;;;;;;;;5043911;28;20433;-79
2023/10/28 09:17:47;;;;;;;4.97;1.20;;;;;;;;;;5044253;28;20431;-79
2023/10/28 09:20:16;;;;;;;3.50;0.90;;;;;;;;;;5037705;28;20446;-76
2023/10/28 09:22:45;;;;;;;4.65;1.20;;;;;;;;;;5037812;28;21234;-75
2023/10/28 09:25:14;;;;;;;1.90;1.00;;;;;;;;;;5043425;28;20468;-73
2023/10/28 09:27:43;;;;;;;3.17;1.33;;;;;;;;;;5042310;28;20433;-75
2023/10/28 09:30:11;;;;;;;2.78;0.90;;;;;;;;;;5043020;28;21149;-73
2023/10/28 09:32:38;;;;;;;2.27;1.00;;;;;;;;;;5039266;28;20442;-76
2023/10/28 09:35:06;;;;;;;3.60;1.00;;;;;;;;;;5040654;28;20429;-73
2023/10/28 09:37:35;;;;;;;4.18;1.27;;;;;;;;;;5040254;28;20434;-75
2023/10/28 09:40:10;;;;;;;3.55;1.08;;;;;;;;;;5042597;28;20429;-78
2023/10/28 09:42:38;;;;;;;3.25;1.10;;;;;;;;;;5038059;28;20512;-78
2023/10/28 09:45:08;;;;;;;2.22;1.17;;;;;;;;;;5039770;28;20436;-78
2023/10/28 09:47:38;;;;;;;2.72;0.85;;;;;;;;;;5038775;28;20424;-78
2023/10/28 09:50:07;;;;;;;3.97;1.10;;;;;;;;;;5035318;28;21103;-78
2023/10/28 09:52:39;;;;;;;3.20;1.10;;;;;;;;;;5035813;28;20434;-78
2023/10/28 09:55:11;;;;;;;5.65;1.02;;;;;;;;;;5040386;28;20438;-76
2023/10/28 09:57:39;;;;;;;4.43;1.05;;;;;;;;;;5044486;28;20439;-79
2023/10/28 10:00:09;;;;;;;4.07;1.30;;;;;;;;;;5043846;28;20911;-77
2023/10/28 10:02:56;;;;;;;5.65;1.10;;;;;;;;;;5036551;28;20435;-77
2023/10/28 10:05:32;;;;;;;5.03;1.00;;;;;;;;;;5034817;28;20518;-77
2023/10/28 10:08:03;;;;;;;3.03;1.30;;;;;;;;;;5044115;28;20437;-75
2023/10/28 10:10:48;;;;;;;4.40;1.17;;;;;;;;;;5036873;28;20863;-78
2023/10/28 10:13:15;;;;;;;4.53;0.95;;;;;;;;;;5038518;28;21054;-76
2023/10/28 10:16:00;;;;;;;4.60;1.00;;;;;;;;;;5043280;28;20510;-74
2023/10/28 10:18:47;;;;;;;4.10;1.60;;;;;;;;;;5042358;28;20436;-75
2023/10/28 10:21:18;;;;;;;2.90;1.02;;;;;;;;;;5040758;28;20851;-74
2023/10/28 10:23:50;;;;;;;5.50;1.00;;;;;;;;;;5031624;28;20442;-74
2023/10/28 10:26:25;;;;;;;5.35;1.10;;;;;;;;;;5046886;28;20882;-75
2023/10/28 10:28:53;;;;;;;3.90;1.40;;;;;;;;;;5043373;28;20441;-73
2023/10/28 10:31:24;;;;;;;3.38;1.17;;;;;;;;;;5047414;28;20437;-74
2023/10/28 10:34:06;;;;;;;5.07;1.20;;;;;;;;;;5042684;28;20437;-74
2023/10/28 10:36:41;;;;;;;4.30;1.27;;;;;;;;;;5044900;28;20520;-74
2023/10/28 10:39:15;;;;;;;3.83;1.02;;;;;;;;;;5039899;28;20441;-74
2023/10/28 10:41:44;;;;;;;4.55;1.23;;;;;;;;;;5042859;28;20433;-75
2023/10/28 10:44:21;;;;;;;4.70;1.38;;;;;;;;;;5040739;28;20437;-74
2023/10/28 10:46:49;;;;;;;5.15;1.20;;;;;;;;;;5040410;28;20429;-75
2023/10/28 10:49:16;;;;;;;4.65;1.45;;;;;;;;;;5035441;28;20890;-75
2023/10/28 10:51:47;;;;;;;5.07;1.30;;;;;;;;;;5041002;28;20433;-73
2023/10/28 10:54:19;;;;;;;5.95;1.70;;;;;;;;;;5034414;28;20433;-73
2023/10/28 10:56:46;;;;;;;7.70;1.70;;;;;;;;;;5043542;28;20567;-74
2023/10/28 10:59:16;;;;;;;4.78;1.38;;;;;;;;;;5046290;28;20425;-73
2023/10/28 11:01:44;;;;;;;6.70;1.35;;;;;;;;;;5040965;28;20522;-73
2023/10/28 11:04:11;;;;;;;4.97;1.40;;;;;;;;;;5043470;28;20426;-74
2023/10/28 11:06:39;;;;;;;8.02;1.50;;;;;;;;;;5045069;28;20443;-74
2023/10/28 11:09:09;;;;;;;6.53;1.40;;;;;;;;;;5045939;28;20469;-74
2023/10/28 11:11:39;;;;;;;7.22;1.50;;;;;;;;;;5043031;28;20428;-73
2023/10/28 11:14:06;;;;;;;8.25;1.70;;;;;;;;;;5042704;28;20427;-74
2023/10/28 11:16:34;;;;;;;6.60;1.37;;;;;;;;;;5044261;28;20433;-73
2023/10/28 11:19:05;;;;;;;5.28;1.10;;;;;;;;;;5042734;28;20433;-73
2023/10/28 11:21:36;;;;;;;4.55;1.20;;;;;;;;;;5044372;28;21001;-73
2023/10/28 11:24:07;;;;;;;5.50;1.27;;;;;;;;;;5035806;28;20818;-73
2023/10/28 11:26:37;;;;;;;3.25;1.42;;;;;;;;;;5044248;28;21075;-73
2023/10/28 11:29:09;;;;;;;7.78;1.48;;;;;;;;;;5045228;28;20684;-72
2023/10/28 11:31:39;;;;;;;5.68;1.60;;;;;;;;;;5044571;28;20469;-72
2023/10/28 11:34:08;;;;;;;4.00;1.20;;;;;;;;;;5038504;28;20439;-73
2023/10/28 11:36:37;;;;;;;6.87;1.40;;;;;;;;;;5039116;28;20935;-73
2023/10/28 11:39:14;;;;;;;4.90;1.50;;;;;;;;;;5044408;28;20425;-74
2023/10/28 11:41:44;;;;;;;5.47;1.35;;;;;;;;;;5040593;28;20433;-73
2023/10/28 11:44:12;;;;;;;4.13;1.40;;;;;;;;;;5042794;28;20429;-72
2023/10/28 11:46:39;;;;;;;2.97;1.30;;;;;;;;;;5037695;28;20530;-72
2023/10/28 11:49:08;;;;;;;4.00;1.10;;;;;;;;;;5041200;28;20475;-74
2023/10/28 11:51:35;;;;;;;3.20;1.30;;;;;;;;;;5042728;28;20966;-72
2023/10/28 11:54:03;;;;;;;3.45;1.30;;;;;;;;;;5041572;28;20429;-73
2023/10/28 11:56:34;;;;;;;4.72;1.30;;;;;;;;;;5039992;28;20496;-74
2023/10/28 11:59:02;;;;;;;4.45;1.35;;;;;;;;;;5031761;28;20433;-73
2023/10/28 12:01:32;;;;;;;3.08;1.13;;;;;;;;;;5036794;28;20443;-74
2023/10/28 12:04:00;;;;;;;4.72;1.35;;;;;;;;;;5039880;28;20809;-73
2023/10/28 12:06:27;;;;;;;2.72;1.15;;;;;;;;;;5033876;28;20432;-73
2023/10/28 12:08:58;;;;;;;4.38;1.30;;;;;;;;;;5035751;28;20504;-73
2023/10/28 12:11:25;;;;;;;4.07;1.30;;;;;;;;;;5038763;28;20479;-74
2023/10/28 12:13:55;;;;;;;3.88;1.00;;;;;;;;;;5032138;28;20431;-74
2023/10/28 12:16:23;;;;;;;5.53;1.38;;;;;;;;;;5042977;28;20454;-74
2023/10/28 12:18:51;;;;;;;5.38;1.45;;;;;;;;;;5035589;28;20427;-72
2023/10/28 12:21:18;;;;;;;6.22;1.50;;;;;;;;;;5041433;28;20519;-73
2023/10/28 12:23:49;;;;;;;6.35;1.40;;;;;;;;;;5024540;28;20528;-73
2023/10/28 12:26:17;;;;;;;4.88;1.42;;;;;;;;;;5038970;28;20463;-73
2023/10/28 12:28:48;;;;;;;4.77;1.47;;;;;;;;;;5045856;28;20550;-74
2023/10/28 12:31:16;;;;;;;4.50;1.60;;;;;;;;;;5039958;28;20436;-73
2023/10/28 12:33:46;;;;;;;7.30;1.77;;;;;;;;;;5039544;28;20434;-73
2023/10/28 12:36:16;;;;;;;6.45;1.42;;;;;;;;;;5042069;28;20441;-73
2023/10/28 12:38:44;;;;;;;5.82;1.35;;;;;;;;;;5037587;28;20435;-73
2023/10/28 12:41:15;;;;;;;5.07;1.60;;;;;;;;;;5038517;28;20550;-74
2023/10/28 12:43:42;;;;;;;5.63;1.50;;;;;;;;;;5031790;28;20535;-74
2023/10/28 12:46:12;;;;;;;7.80;1.60;;;;;;;;;;5042084;28;20429;-74
2023/10/28 12:48:39;;;;;;;7.30;1.85;;;;;;;;;;5035042;28;20896;-74
2023/10/28 12:51:06;;;;;;;10.52;1.83;;;;;;;;;;5027626;28;20906;-75
2023/10/28 12:53:33;;;;;;;5.37;1.53;;;;;;;;;;5036700;28;20523;-75
2023/10/28 12:56:02;;;;;;;5.63;1.57;;;;;;;;;;5035187;28;20464;-75
2023/10/28 12:58:30;;;;;;;5.68;1.52;;;;;;;;;;5034677;28;20442;-76
2023/10/28 13:00:57;;;;;;;8.50;1.85;;;;;;;;;;5036812;28;20512;-75
2023/10/28 13:03:25;;;;;;;5.50;1.45;;;;;;;;;;5043213;28;20512;-76
2023/10/28 13:05:52;;;;;;;8.20;1.40;;;;;;;;;;5036400;28;21097;-76
2023/10/28 13:08:23;;;;;;;6.30;1.75;;;;;;;;;;5030397;28;20448;-78
2023/10/28 13:10:50;;;;;;;7.38;1.63;;;;;;;;;;5039495;28;20516;-79
2023/10/28 13:13:22;;;;;;;11.15;2.20;;;;;;;;;;5044701;28;20433;-79
2023/10/28 13:15:49;;;;;;;7.63;2.20;;;;;;;;;;5043454;28;20429;-78
2023/10/28 13:18:16;;;;;;;9.50;2.20;;;;;;;;;;5034700;28;20438;-79
2023/10/28 13:20:43;;;;;;;8.55;1.83;;;;;;;;;;5044317;28;20484;-79
2023/10/28 13:23:12;;;;;;;4.72;1.73;;;;;;;;;;5039951;28;20441;-78
2023/10/28 13:25:39;;;;;;;5.57;1.45;;;;;;;;;;5038889;28;20425;-77
2023/10/28 13:28:09;;;;;;;5.50;1.80;;;;;;;;;;5035875;28;20473;-79
2023/10/28 13:30:40;;;;;;;8.00;1.67;;;;;;;;;;5038913;28;20941;-76
2023/10/28 13:33:11;;;;;;;6.05;1.70;;;;;;;;;;5035554;28;21005;-78
2023/10/28 13:35:38;;;;;;;5.63;1.65;;;;;;;;;;5040986;28;20463;-77
2023/10/28 13:38:09;;;;;;;8.10;1.85;;;;;;;;;;5041355;28;20447;-78
2023/10/28 13:40:36;;;;;;;4.95;1.40;;;;;;;;;;5045944;28;20429;-78
2023/10/28 13:43:04;;;;;;;7.80;1.88;;;;;;;;;;5046414;28;20917;-77
2023/10/28 13:45:34;;;;;;;6.05;1.63;;;;;;;;;;5044684;28;20446;-78
2023/10/28 13:48:05;;;;;;;4.90;1.70;;;;;;;;;;5045645;28;20849;-78
2023/10/28 13:50:36;;;;;;;7.45;1.58;;;;;;;;;;5046581;28;21127;-77
2023/10/28 13:53:06;;;;;;;5.22;1.42;;;;;;;;;;5046250;28;20504;-78
2023/10/28 13:55:34;;;;;;;5.60;1.20;;;;;;;;;;5047994;28;20429;-77
2023/10/28 13:58:01;;;;;;;4.63;1.67;;;;;;;;;;5047265;28;20429;-78
2023/10/28 14:00:30;;;;;;;5.05;1.42;;;;;;;;;;5050500;28;20425;-77
2023/10/28 14:02:57;;;;;;;6.13;1.60;;;;;;;;;;5049243;28;20509;-77
2023/10/28 14:05:25;;;;;;;5.33;1.47;;;;;;;;;;5044461;28;20428;-78
2023/10/28 14:07:53;;;;;;;4.80;1.52;;;;;;;;;;5044985;28;20509;-77
2023/10/28 14:10:20;;;;;;;5.53;1.48;;;;;;;;;;5046757;28;20469;-77
2023/10/28 14:12:47;;;;;;;6.15;1.50;;;;;;;;;;5048131;28;20445;-77
2023/10/28 14:15:15;;;;;;;3.80;1.10;;;;;;;;;;5046974;28;20479;-77
2023/10/28 14:17:42;;;;;;;2.53;1.20;;;;;;;;;;5046735;28;20441;-77
2023/10/28 14:20:10;;;;;;;3.83;1.20;;;;;;;;;;5037546;28;20968;-77
2023/10/28 14:22:37;;;;;;;4.00;1.33;;;;;;;;;;5038046;28;20743;-78
2023/10/28 14:25:08;;;;;;;2.90;1.05;;;;;;;;;;5044144;28;20437;-78
2023/10/28 14:27:36;;;;;;;2.30;1.00;;;;;;;;;;5042979;28;20485;-76
2023/10/28 14:30:05;;;;;;;3.55;1.10;;;;;;;;;;5038877;28;20433;-78
2023/10/28 14:32:35;;;;;;;2.83;1.30;;;;;;;;;;5047581;28;20444;-77
2023/10/28 14:35:03;;;;;;;1.97;0.90;;;;;;;;;;5046024;28;20433;-78
2023/10/28 14:37:31;;;;;;;5.43;1.00;;;;;;;;;;5049516;28;20417;-77
2023/10/28 14:39:58;;;;;;;0.80;0.80;;;;;;;;;;5043165;28;20430;-77
2023/10/28 14:42:25;;;;;;;4.75;1.33;;;;;;;;;;5048197;28;20441;-77
2023/10/28 14:44:53;;;;;;;5.25;0.95;;;;;;;;;;5040015;28;20444;-76
2023/10/28 14:47:20;;;;;;;3.67;0.90;;;;;;;;;;5046382;28;20518;-77
2023/10/28 14:49:47;;;;;;;1.05;0.80;;;;;;;;;;5045428;28;20945;-75
2023/10/28 14:52:14;;;;;;;3.28;1.00;;;;;;;;;;5043911;28;20982;-76